Time;durP1;ratioP1;P1;durP2;ratioP2;P2;SDS_P1;SDS_P2;PMS_P1;PMS_P2;Temp;Humidity;BMP_temperature;BMP_pressure;BME280_temperature;BME280_humidity;BME280_pressure;Samples;Min_cycle;Max_cycle;Signal;HPM_P1;HPM_P2
2023/12/31 00:00:53;;;;;;;18.90;11.68;;;;;;;6.51;58.89;95299.50;5105413;28;20028;-82
2023/12/31 00:03:18;;;;;;;25.38;13.75;;;;;;;6.54;59.06;95304.19;5106532;28;20107;-81
2023/12/31 00:05:43;;;;;;;29.63;15.77;;;;;;;6.53;59.02;95299.88;5105652;28;20493;-82
2023/12/31 00:08:11;;;;;;;26.08;16.67;;;;;;;6.50;58.86;95298.72;5106393;28;20103;-81
2023/12/31 00:10:39;;;;;;;30.15;19.10;;;;;;;6.47;58.75;95307.72;5105898;28;20055;-82
2023/12/31 00:13:04;;;;;;;34.65;21.30;;;;;;;6.48;58.57;95308.50;5105416;28;20027;-81
2023/12/31 00:15:30;;;;;;;37.75;20.00;;;;;;;6.46;58.64;95308.91;5105801;28;20054;-81
2023/12/31 00:17:55;;;;;;;33.15;20.75;;;;;;;6.42;58.46;95307.38;5103671;28;20075;-81
2023/12/31 00:20:20;;;;;;;33.80;20.10;;;;;;;6.39;58.72;95314.41;5106105;28;20028;-81
2023/12/31 00:22:46;;;;;;;28.17;19.38;;;;;;;6.34;58.78;95304.69;5105153;28;20114;-82
2023/12/31 00:25:11;;;;;;;29.50;19.10;;;;;;;6.34;58.79;95306.63;5104915;28;20519;-81
2023/12/31 00:27:37;;;;;;;29.08;19.35;;;;;;;6.31;58.76;95308.22;5104471;28;20110;-81
2023/12/31 00:30:03;;;;;;;33.05;19.35;;;;;;;6.33;58.64;95305.88;5105526;28;20519;-82
2023/12/31 00:32:28;;;;;;;37.05;19.65;;;;;;;6.36;58.56;95313.25;5104735;28;20063;-81
2023/12/31 00:34:53;;;;;;;34.47;20.30;;;;;;;6.33;58.78;95318.75;5104900;28;20032;-81
2023/12/31 00:37:19;;;;;;;31.25;20.58;;;;;;;6.29;58.91;95313.28;5105826;28;20031;-80
2023/12/31 00:39:44;;;;;;;31.52;19.17;;;;;;;6.24;58.97;95316.44;5104943;28;20038;-82
2023/12/31 00:42:10;;;;;;;35.15;20.08;;;;;;;6.23;59.12;95322.31;5105966;28;20081;-81
2023/12/31 00:44:35;;;;;;;32.25;19.08;;;;;;;6.21;59.36;95314.53;5105401;28;20077;-81
2023/12/31 00:47:01;;;;;;;29.10;18.83;;;;;;;6.15;59.11;95305.22;5105567;28;20829;-80
2023/12/31 00:49:26;;;;;;;33.88;18.85;;;;;;;6.19;59.57;95314.13;5105509;28;20072;-82
2023/12/31 00:51:51;;;;;;;27.85;17.50;;;;;;;6.19;59.64;95316.84;5106601;28;20469;-81
2023/12/31 00:54:17;;;;;;;31.90;18.08;;;;;;;6.20;59.44;95312.97;5109273;28;20038;-81
2023/12/31 00:56:42;;;;;;;25.40;16.50;;;;;;;6.17;59.61;95316.50;5108279;27;20335;-81
2023/12/31 00:59:07;;;;;;;26.92;17.60;;;;;;;6.22;59.74;95320.75;5109355;28;20080;-81
2023/12/31 01:01:33;;;;;;;30.58;16.60;;;;;;;6.21;59.66;95314.53;5109355;27;20047;-82
2023/12/31 01:03:58;;;;;;;26.02;16.85;;;;;;;6.21;59.71;95308.28;5109140;28;20054;-81
2023/12/31 01:06:24;;;;;;;26.40;16.92;;;;;;;6.18;59.89;95306.34;5108789;28;20066;-81
2023/12/31 01:08:50;;;;;;;24.88;16.00;;;;;;;6.20;59.81;95312.97;5108756;28;20493;-82
2023/12/31 01:11:15;;;;;;;28.23;17.30;;;;;;;6.16;59.99;95303.25;5108907;28;20035;-81
2023/12/31 01:13:41;;;;;;;27.45;18.83;;;;;;;6.13;59.77;95296.63;5108582;28;20024;-81
2023/12/31 01:16:06;;;;;;;39.60;23.08;;;;;;;6.14;59.45;95300.94;5108498;28;20482;-82
2023/12/31 01:18:32;;;;;;;37.47;22.77;;;;;;;6.15;59.37;95301.69;5108287;28;20081;-81
2023/12/31 01:20:57;;;;;;;40.05;23.30;;;;;;;6.13;59.32;95300.13;5108844;28;20031;-81
2023/12/31 01:23:23;;;;;;;28.58;18.95;;;;;;;6.07;59.62;95296.25;5108238;28;20050;-81
2023/12/31 01:25:48;;;;;;;34.13;20.85;;;;;;;6.05;59.75;95297.84;5108634;28;20087;-81
2023/12/31 01:28:14;;;;;;;34.45;21.40;;;;;;;6.03;59.79;95295.53;5108493;27;20032;-80
2023/12/31 01:30:39;;;;;;;35.22;20.85;;;;;;;5.99;59.80;95304.91;5108470;28;20023;-80
2023/12/31 01:33:05;;;;;;;33.95;22.00;;;;;;;6.00;59.57;95293.59;5108515;28;20023;-81
2023/12/31 01:35:30;;;;;;;32.90;17.75;;;;;;;5.94;60.28;95295.19;5108211;28;20016;-80
2023/12/31 01:37:55;;;;;;;31.65;19.00;;;;;;;5.90;60.23;95283.47;5108205;28;20379;-80
2023/12/31 01:40:21;;;;;;;27.50;16.27;;;;;;;5.91;60.35;95292.44;5107776;28;20098;-81
2023/12/31 01:42:46;;;;;;;33.72;19.35;;;;;;;5.84;60.40;95285.81;5108425;27;20112;-81
2023/12/31 01:45:12;;;;;;;32.67;19.83;;;;;;;5.74;60.41;95277.72;5108286;28;20035;-81
2023/12/31 01:47:37;;;;;;;30.45;18.15;;;;;;;5.88;60.32;95299.47;5108190;27;20087;-81
2023/12/31 01:50:04;;;;;;;30.35;18.52;;;;;;;5.89;60.41;95303.75;5106572;28;20412;-81
2023/12/31 01:52:30;;;;;;;32.13;18.20;;;;;;;5.83;60.45;95300.66;5106357;28;20092;-81
2023/12/31 01:54:56;;;;;;;25.08;15.63;;;;;;;5.80;60.66;95296.00;5106397;28;20031;-81
2023/12/31 01:57:27;;;;;;;24.65;17.35;;;;;;;5.83;60.56;95295.19;5106231;28;20019;-81
2023/12/31 01:59:53;;;;;;;28.02;17.50;;;;;;;5.93;59.97;95301.03;5106917;28;20078;-80
2023/12/31 02:02:19;;;;;;;29.63;17.80;;;;;;;5.85;60.01;95292.09;5106228;28;20487;-80
2023/12/31 02:04:45;;;;;;;29.00;17.58;;;;;;;5.86;59.99;95288.19;5105751;28;20478;-81
2023/12/31 02:07:10;;;;;;;26.42;16.10;;;;;;;5.82;60.00;95285.47;5107630;28;20063;-81
2023/12/31 02:09:35;;;;;;;22.42;15.30;;;;;;;5.82;60.23;95290.91;5107555;28;20107;-82
2023/12/31 02:12:01;;;;;;;24.48;15.75;;;;;;;5.82;60.17;95281.97;5107675;28;20405;-82
2023/12/31 02:14:27;;;;;;;25.45;15.60;;;;;;;5.84;60.00;95280.38;5106926;28;20048;-81
2023/12/31 02:16:52;;;;;;;27.55;15.45;;;;;;;5.84;60.00;95265.97;5105972;28;20112;-80
2023/12/31 02:19:17;;;;;;;22.20;15.40;;;;;;;5.86;60.17;95269.84;5107320;28;20023;-80
2023/12/31 02:21:43;;;;;;;21.95;13.63;;;;;;;5.84;60.96;95274.13;5108324;28;20080;-80
2023/12/31 02:24:11;;;;;;;23.42;14.00;;;;;;;5.85;61.00;95275.72;5106877;28;20115;-81
2023/12/31 02:26:37;;;;;;;23.25;14.23;;;;;;;5.81;60.69;95270.28;5107284;28;20024;-80
2023/12/31 02:29:02;;;;;;;22.33;14.13;;;;;;;5.80;60.58;95271.44;5105802;28;20524;-80
2023/12/31 02:31:28;;;;;;;22.65;12.88;;;;;;;5.77;60.42;95271.47;5106788;28;20122;-79
2023/12/31 02:33:53;;;;;;;19.90;13.82;;;;;;;5.82;60.44;95271.81;5107080;28;20028;-80
2023/12/31 02:36:18;;;;;;;22.60;14.27;;;;;;;5.84;59.92;95263.22;5106683;28;20114;-80
2023/12/31 02:38:44;;;;;;;20.58;13.63;;;;;;;5.83;60.08;95254.28;5107729;28;20027;-80
2023/12/31 02:41:09;;;;;;;21.88;14.00;;;;;;;5.78;60.16;95260.13;5106844;28;20522;-81
2023/12/31 02:43:35;;;;;;;21.55;13.15;;;;;;;5.77;60.19;95264.03;5107170;28;20035;-80
2023/12/31 02:46:00;;;;;;;25.95;14.13;;;;;;;5.76;60.17;95251.59;5106554;28;20129;-80
2023/12/31 02:48:25;;;;;;;23.25;14.55;;;;;;;5.73;60.38;95262.50;5106668;28;20031;-81
2023/12/31 02:50:51;;;;;;;22.48;14.57;;;;;;;5.71;60.49;95253.94;5105525;28;20028;-81
2023/12/31 02:53:16;;;;;;;26.83;16.08;;;;;;;5.65;60.49;95252.81;5106445;28;20106;-81
2023/12/31 02:55:42;;;;;;;25.88;18.25;;;;;;;5.62;60.73;95267.22;5107276;27;20034;-81
2023/12/31 02:58:07;;;;;;;27.85;18.10;;;;;;;5.52;60.85;95264.16;5105181;28;20024;-81
2023/12/31 03:00:32;;;;;;;27.58;18.88;;;;;;;5.53;60.72;95260.25;5106157;28;20035;-81
2023/12/31 03:02:58;;;;;;;28.58;18.67;;;;;;;5.57;60.41;95257.53;5110033;28;20060;-80
2023/12/31 03:05:23;;;;;;;29.05;18.48;;;;;;;5.45;60.79;95261.47;5118406;28;20462;-80
2023/12/31 03:07:49;;;;;;;30.35;18.67;;;;;;;5.42;60.81;95261.47;5118554;28;20023;-80
2023/12/31 03:10:14;;;;;;;28.20;17.45;;;;;;;5.35;61.05;95265.00;5119069;28;20072;-81
2023/12/31 03:12:39;;;;;;;27.63;17.30;;;;;;;5.32;60.97;95254.88;5124038;28;20031;-80
2023/12/31 03:15:05;;;;;;;26.63;16.75;;;;;;;5.19;60.85;95248.31;5107636;27;20346;-81
2023/12/31 03:17:31;;;;;;;24.75;15.38;;;;;;;5.27;61.06;95258.03;5107850;28;20035;-81
2023/12/31 03:19:57;;;;;;;21.80;14.10;;;;;;;5.23;61.07;95254.53;5105691;28;20161;-81
2023/12/31 03:22:22;;;;;;;22.23;13.95;;;;;;;5.19;61.06;95261.94;5106832;28;20052;-81
2023/12/31 03:24:48;;;;;;;20.30;13.73;;;;;;;5.18;60.95;95255.72;5106309;28;20410;-81
2023/12/31 03:27:13;;;;;;;21.88;13.77;;;;;;;5.15;60.72;95253.78;5106364;28;20053;-81
2023/12/31 03:29:39;;;;;;;20.45;13.18;;;;;;;5.11;60.94;95263.94;5106514;28;20091;-81
2023/12/31 03:32:04;;;;;;;24.05;15.70;;;;;;;5.09;61.08;95247.16;5105748;28;20024;-80
2023/12/31 03:34:30;;;;;;;25.67;15.15;;;;;;;5.08;60.98;95256.53;5106669;28;20024;-81
2023/12/31 03:36:55;;;;;;;22.05;15.05;;;;;;;5.02;61.10;95252.66;5105602;28;20059;-81
2023/12/31 03:39:20;;;;;;;22.83;15.60;;;;;;;5.00;61.35;95257.72;5105256;28;20028;-80
2023/12/31 03:41:48;;;;;;;23.55;14.82;;;;;;;4.90;61.57;95253.84;5105893;28;20080;-80
2023/12/31 03:44:13;;;;;;;21.65;13.73;;;;;;;4.93;61.66;95268.63;5105818;28;20023;-81
2023/12/31 03:46:39;;;;;;;24.38;15.52;;;;;;;4.92;61.36;95267.06;5106241;28;20370;-81
2023/12/31 03:49:04;;;;;;;21.65;14.35;;;;;;;4.88;61.15;95269.03;5104058;28;20055;-81
2023/12/31 03:51:30;;;;;;;20.58;13.90;;;;;;;4.85;60.89;95276.03;5104746;28;20032;-82
2023/12/31 03:53:55;;;;;;;24.63;13.90;;;;;;;4.70;60.98;95260.88;5105346;28;20486;-82
2023/12/31 03:56:21;;;;;;;20.08;12.52;;;;;;;4.80;60.77;95277.19;5106470;28;20055;-82
2023/12/31 03:58:46;;;;;;;22.30;13.80;;;;;;;4.73;60.80;95274.50;5105790;28;20024;-81
2023/12/31 04:01:11;;;;;;;19.55;13.10;;;;;;;4.72;60.93;95264.00;5106315;28;20024;-81
2023/12/31 04:03:39;;;;;;;20.10;12.82;;;;;;;4.63;61.43;95267.09;5104700;28;20035;-81
2023/12/31 04:06:04;;;;;;;23.25;13.70;;;;;;;4.70;61.31;95274.47;5105311;28;20099;-81
2023/12/31 04:08:30;;;;;;;21.75;14.75;;;;;;;4.63;61.60;95272.53;5105934;28;20157;-81
2023/12/31 04:10:55;;;;;;;24.80;15.80;;;;;;;4.62;61.59;95273.72;5105172;28;20434;-81
2023/12/31 04:13:21;;;;;;;30.90;17.90;;;;;;;4.61;62.07;95283.06;5105979;28;20032;-81
2023/12/31 04:15:46;;;;;;;28.70;19.00;;;;;;;4.61;62.39;95279.56;5105045;28;20047;-81
2023/12/31 04:18:12;;;;;;;33.42;19.52;;;;;;;4.53;62.61;95281.53;5105999;28;20032;-81
2023/12/31 04:20:37;;;;;;;27.45;16.17;;;;;;;4.53;62.14;95286.97;5105636;28;20034;-82
2023/12/31 04:23:03;;;;;;;24.08;15.55;;;;;;;4.49;61.58;95278.78;5105658;28;20042;-82
2023/12/31 04:25:28;;;;;;;21.30;14.73;;;;;;;4.48;61.28;95285.41;5105872;28;20077;-81
2023/12/31 04:27:53;;;;;;;25.58;16.77;;;;;;;4.43;61.13;95283.06;5106969;28;20059;-81
2023/12/31 04:30:19;;;;;;;22.83;16.17;;;;;;;4.49;61.24;95295.13;5109759;28;20027;-81
2023/12/31 04:32:44;;;;;;;25.52;16.42;;;;;;;4.42;61.57;95294.34;5109079;28;20102;-81
2023/12/31 04:35:10;;;;;;;30.42;18.75;;;;;;;4.38;61.85;95301.72;5109678;28;20032;-81
2023/12/31 04:37:36;;;;;;;40.97;26.90;;;;;;;4.24;62.25;95286.94;5107923;28;20107;-81
2023/12/31 04:40:02;;;;;;;45.35;27.92;;;;;;;4.30;62.42;95302.88;5109760;27;20016;-81
2023/12/31 04:42:27;;;;;;;51.35;30.17;;;;;;;4.21;62.51;95289.66;5109520;28;20111;-81
2023/12/31 04:44:53;;;;;;;49.42;30.17;;;;;;;4.32;62.64;95295.88;5108854;28;20145;-81
2023/12/31 04:47:19;;;;;;;50.13;31.40;;;;;;;4.25;62.92;95288.50;5109647;28;20148;-81
2023/12/31 04:49:44;;;;;;;52.22;29.38;;;;;;;4.20;63.26;95304.44;5108867;28;20073;-81
2023/12/31 04:52:09;;;;;;;46.88;29.60;;;;;;;4.14;63.34;95304.03;5109232;28;20455;-82
2023/12/31 04:54:35;;;;;;;45.28;28.20;;;;;;;4.10;63.40;95305.97;5107230;28;20019;-81
2023/12/31 04:57:00;;;;;;;44.40;27.98;;;;;;;4.00;63.15;95307.47;5109186;28;20073;-80
2023/12/31 04:59:26;;;;;;;43.47;27.10;;;;;;;3.98;63.60;95306.31;5109113;28;20103;-81
2023/12/31 05:01:52;;;;;;;38.70;25.10;;;;;;;3.97;63.83;95311.00;5107731;28;20031;-82
2023/12/31 05:04:19;;;;;;;40.72;24.70;;;;;;;4.00;63.48;95307.47;5109024;28;20032;-81
2023/12/31 05:06:44;;;;;;;39.03;25.63;;;;;;;3.92;63.77;95305.91;5108520;28;20023;-81
2023/12/31 05:09:11;;;;;;;42.15;25.38;;;;;;;3.90;63.86;95299.28;5108784;28;20031;-81
2023/12/31 05:11:37;;;;;;;39.70;23.38;;;;;;;3.83;64.05;95299.28;5109037;28;20047;-81
2023/12/31 05:14:02;;;;;;;34.08;22.75;;;;;;;3.79;63.96;95293.06;5107400;28;20442;-82
2023/12/31 05:16:31;;;;;;;39.50;23.98;;;;;;;3.86;63.85;95306.69;5108522;28;20027;-81
2023/12/31 05:18:57;;;;;;;35.28;22.02;;;;;;;3.83;63.90;95302.78;5108627;28;20400;-80
2023/12/31 05:21:23;;;;;;;36.38;23.10;;;;;;;3.85;63.82;95299.69;5108719;28;20501;-81
2023/12/31 05:23:48;;;;;;;34.67;22.23;;;;;;;3.80;63.81;95306.28;5108084;28;20119;-80
2023/12/31 05:26:14;;;;;;;35.92;23.23;;;;;;;3.78;63.84;95311.31;5108370;28;20027;-80
2023/12/31 05:28:39;;;;;;;35.50;21.65;;;;;;;3.78;63.91;95307.81;5106712;28;20031;-81
2023/12/31 05:31:05;;;;;;;33.28;21.55;;;;;;;3.73;64.33;95308.97;5109003;28;20088;-81
2023/12/31 05:33:30;;;;;;;31.88;20.98;;;;;;;3.73;64.28;95301.59;5106937;28;20028;-83
2023/12/31 05:35:55;;;;;;;32.03;19.55;;;;;;;3.69;64.53;95306.25;5108541;28;20468;-82
2023/12/31 05:38:21;;;;;;;32.20;20.45;;;;;;;3.72;64.42;95302.75;5107515;28;20019;-82
2023/12/31 05:40:46;;;;;;;30.50;20.15;;;;;;;3.71;64.02;95303.13;5106897;28;20160;-82
2023/12/31 05:43:12;;;;;;;32.88;20.73;;;;;;;3.66;63.91;95304.28;5107243;28;20032;-82
2023/12/31 05:45:37;;;;;;;35.78;22.10;;;;;;;3.67;63.61;95307.75;5108186;28;20034;-81
2023/12/31 05:48:03;;;;;;;33.85;21.25;;;;;;;3.68;63.18;95310.13;5108130;28;20020;-81
2023/12/31 05:50:29;;;;;;;30.60;18.73;;;;;;;3.59;63.38;95298.81;5107710;28;20035;-80
2023/12/31 05:52:54;;;;;;;33.08;21.10;;;;;;;3.63;63.35;95307.78;5108725;27;20058;-81
2023/12/31 05:55:19;;;;;;;32.60;20.42;;;;;;;3.63;63.63;95312.44;5107969;28;20497;-80
2023/12/31 05:57:45;;;;;;;30.48;19.52;;;;;;;3.63;64.24;95315.16;5108279;28;20024;-81
2023/12/31 06:00:11;;;;;;;28.40;19.23;;;;;;;3.61;64.17;95304.66;5108266;28;20031;-82
2023/12/31 06:02:37;;;;;;;28.38;18.55;;;;;;;3.59;64.14;95303.47;5106533;28;20096;-81
2023/12/31 06:05:02;;;;;;;28.50;18.15;;;;;;;3.57;63.71;95303.09;5106480;28;20157;-81
2023/12/31 06:07:28;;;;;;;27.05;18.73;;;;;;;3.51;63.21;95297.25;5107654;28;20498;-81
2023/12/31 06:09:53;;;;;;;29.80;18.50;;;;;;;3.49;63.50;95313.13;5108033;28;20062;-82
2023/12/31 06:12:19;;;;;;;29.60;18.83;;;;;;;3.49;62.95;95296.06;5107150;28;20035;-82
2023/12/31 06:14:44;;;;;;;26.92;17.48;;;;;;;3.55;62.72;95308.13;5107658;28;20050;-82
2023/12/31 06:17:09;;;;;;;26.67;17.63;;;;;;;3.52;62.80;95317.03;5107338;28;20198;-81
2023/12/31 06:19:35;;;;;;;25.52;16.60;;;;;;;3.51;62.75;95313.56;5107609;28;20028;-82
2023/12/31 06:22:00;;;;;;;28.13;17.25;;;;;;;3.48;62.75;95319.75;5107460;27;20106;-81
2023/12/31 06:24:26;;;;;;;28.38;17.48;;;;;;;3.45;62.54;95315.84;5106872;28;20044;-81
2023/12/31 06:26:52;;;;;;;31.15;16.67;;;;;;;3.44;62.54;95321.66;5107591;28;20157;-81
2023/12/31 06:29:18;;;;;;;28.80;16.77;;;;;;;3.49;62.14;95326.72;5106541;28;20513;-81
2023/12/31 06:31:43;;;;;;;23.48;15.15;;;;;;;3.49;62.06;95315.84;5107573;28;20026;-81
2023/12/31 06:34:08;;;;;;;25.73;15.63;;;;;;;3.50;61.66;95332.94;5105478;28;20093;-82
2023/12/31 06:36:34;;;;;;;27.83;16.38;;;;;;;3.50;61.70;95324.78;5107435;28;20080;-81
2023/12/31 06:39:00;;;;;;;29.27;17.20;;;;;;;3.45;61.58;95334.88;5107339;28;20023;-79
2023/12/31 06:41:25;;;;;;;26.98;16.85;;;;;;;3.44;61.68;95327.09;5106704;28;20112;-82
2023/12/31 06:43:51;;;;;;;29.98;16.35;;;;;;;3.47;61.75;95343.44;5107293;28;20106;-84
2023/12/31 06:46:16;;;;;;;27.35;16.75;;;;;;;3.46;61.79;95338.38;5106579;28;20764;-81
2023/12/31 06:48:41;;;;;;;25.70;15.98;;;;;;;3.42;61.98;95341.06;5106979;28;20023;-82
2023/12/31 06:51:07;;;;;;;24.90;16.50;;;;;;;3.42;62.65;95337.56;5106207;28;20053;-82
2023/12/31 06:53:35;;;;;;;26.20;16.85;;;;;;;3.44;62.68;95341.47;5107167;28;20027;-81
2023/12/31 06:56:07;;;;;;;29.85;18.77;;;;;;;3.41;62.69;95344.19;5106527;28;20024;-83
2023/12/31 06:58:35;;;;;;;29.95;18.48;;;;;;;3.45;63.01;95347.69;5106623;28;20065;-80
2023/12/31 07:01:00;;;;;;;33.05;18.77;;;;;;;3.41;63.12;95342.22;5107351;28;20067;-80
2023/12/31 07:03:25;;;;;;;29.83;19.65;;;;;;;3.45;63.06;95351.19;5106431;28;20067;-80
2023/12/31 07:05:51;;;;;;;36.92;21.10;;;;;;;3.47;63.29;95346.16;5106764;28;20027;-81
2023/12/31 07:08:16;;;;;;;33.35;19.73;;;;;;;3.55;63.15;95344.22;5106146;28;20454;-81
2023/12/31 07:10:42;;;;;;;30.17;19.33;;;;;;;3.59;62.71;95345.03;5106988;28;20496;-80
2023/12/31 07:13:08;;;;;;;32.95;20.50;;;;;;;3.60;62.58;95346.59;5106069;28;20028;-82
2023/12/31 07:15:34;;;;;;;34.72;20.58;;;;;;;3.65;62.68;95343.50;5106427;28;20111;-81
2023/12/31 07:18:00;;;;;;;38.30;21.25;;;;;;;3.69;62.70;95352.47;5106722;28;20098;-80
2023/12/31 07:20:25;;;;;;;36.90;23.38;;;;;;;3.81;63.34;95347.84;5106242;28;20485;-80
2023/12/31 07:22:52;;;;;;;40.30;23.88;;;;;;;3.81;64.13;95334.25;5106404;28;20028;-80
2023/12/31 07:25:18;;;;;;;37.45;23.98;;;;;;;3.86;64.30;95342.81;5105658;28;20543;-80
2023/12/31 07:27:44;;;;;;;39.63;25.25;;;;;;;3.99;64.34;95349.47;5106762;28;20020;-78
2023/12/31 07:30:09;;;;;;;38.30;23.55;;;;;;;4.00;64.53;95342.84;5104363;28;20024;-79
2023/12/31 07:32:35;;;;;;;39.00;25.50;;;;;;;4.04;64.34;95332.00;5106877;28;20046;-79
2023/12/31 07:35:00;;;;;;;47.33;29.75;;;;;;;4.17;63.53;95349.50;5104622;28;20085;-79
2023/12/31 07:37:26;;;;;;;39.03;26.30;;;;;;;4.29;63.69;95339.41;5106036;28;20104;-78
2023/12/31 07:39:51;;;;;;;43.97;28.00;;;;;;;4.43;63.08;95336.72;5104934;28;20027;-78
2023/12/31 07:42:16;;;;;;;41.58;27.70;;;;;;;4.62;63.15;95344.53;5105388;28;20024;-78
2023/12/31 07:44:42;;;;;;;44.53;28.05;;;;;;;4.83;62.30;95341.03;5106070;28;20084;-78
2023/12/31 07:47:07;;;;;;;44.33;28.13;;;;;;;5.13;62.19;95334.38;5105290;28;20110;-79
2023/12/31 07:49:33;;;;;;;44.20;28.17;;;;;;;5.43;61.68;95342.88;5106385;28;20031;-80
2023/12/31 07:51:59;;;;;;;42.53;28.08;;;;;;;5.79;60.82;95350.94;5106413;28;20027;-80
2023/12/31 07:54:25;;;;;;;45.55;28.92;;;;;;;6.14;60.12;95350.06;5106015;28;20031;-82
2023/12/31 07:56:51;;;;;;;39.15;27.75;;;;;;;6.61;59.10;95351.34;5106137;28;20031;-78
2023/12/31 07:59:17;;;;;;;38.67;26.80;;;;;;;7.27;57.37;95361.34;5105511;28;20042;-81
2023/12/31 08:01:42;;;;;;;37.70;27.55;;;;;;;8.65;53.72;95351.91;5107896;28;20028;-81
2023/12/31 08:04:08;;;;;;;37.53;25.33;;;;;;;10.27;49.45;95351.41;5110204;28;20038;-79
2023/12/31 08:06:33;;;;;;;35.45;25.30;;;;;;;11.55;45.64;95355.88;5110690;28;20649;-80
2023/12/31 08:08:59;;;;;;;35.58;25.15;;;;;;;12.56;43.11;95347.19;5115617;27;20024;-82
2023/12/31 08:11:25;;;;;;;34.00;23.67;;;;;;;13.57;40.60;95348.34;5117129;28;20050;-81
2023/12/31 08:13:50;;;;;;;33.05;25.05;;;;;;;14.44;38.66;95361.44;5118678;28;20084;-79
2023/12/31 08:16:16;;;;;;;31.27;23.73;;;;;;;15.31;37.15;95357.72;5122057;28;20426;-80
2023/12/31 08:18:43;;;;;;;32.90;23.83;;;;;;;16.01;35.83;95363.53;5114726;27;20110;-79
2023/12/31 08:21:10;;;;;;;32.10;24.23;;;;;;;16.60;34.76;95369.63;5109669;28;20471;-79
2023/12/31 08:23:35;;;;;;;30.60;24.40;;;;;;;17.29;32.97;95362.47;5110401;28;20047;-79
2023/12/31 08:26:00;;;;;;;32.20;24.65;;;;;;;17.82;32.30;95367.44;5109628;28;20053;-79
2023/12/31 08:28:26;;;;;;;31.08;24.42;;;;;;;18.23;31.26;95356.63;5108648;28;20038;-78
2023/12/31 08:30:52;;;;;;;36.47;25.73;;;;;;;18.90;30.85;95363.41;5109849;28;20481;-79
2023/12/31 08:33:17;;;;;;;28.83;23.38;;;;;;;19.48;29.79;95358.22;5108158;28;20036;-79
2023/12/31 08:35:43;;;;;;;30.98;24.00;;;;;;;20.02;28.69;95376.22;5108611;28;20043;-79
2023/12/31 08:38:09;;;;;;;28.45;22.60;;;;;;;20.33;28.22;95352.47;5109243;28;20433;-78
2023/12/31 08:40:34;;;;;;;26.23;21.45;;;;;;;20.80;27.48;95364.38;5108674;28;20020;-83
2023/12/31 08:43:01;;;;;;;22.88;20.45;;;;;;;21.28;27.06;95366.56;5109127;28;20106;-79
2023/12/31 08:45:26;;;;;;;24.75;21.02;;;;;;;21.83;25.94;95359.81;5109294;28;20023;-82
2023/12/31 08:47:52;;;;;;;23.38;20.85;;;;;;;22.41;25.53;95357.50;5109058;28;20077;-81
2023/12/31 08:50:18;;;;;;;23.98;21.40;;;;;;;22.90;24.55;95358.91;5109490;28;20023;-79
2023/12/31 08:52:45;;;;;;;24.98;21.35;;;;;;;23.44;23.94;95366.31;5109108;28;20478;-79
2023/12/31 08:55:14;;;;;;;23.55;20.50;;;;;;;23.91;23.49;95358.81;5109118;28;20058;-78
2023/12/31 08:57:44;;;;;;;23.63;21.13;;;;;;;24.43;22.55;95358.16;5109628;28;20024;-78
2023/12/31 09:00:13;;;;;;;23.73;20.92;;;;;;;24.60;22.41;95356.03;5107107;28;20658;-78
2023/12/31 09:02:39;;;;;;;25.42;21.17;;;;;;;24.90;22.02;95358.88;5109588;28;20434;-79
2023/12/31 09:05:05;;;;;;;24.23;21.60;;;;;;;25.30;21.44;95353.75;5110855;28;20027;-80
2023/12/31 09:07:34;;;;;;;25.40;22.58;;;;;;;25.66;21.11;95353.66;5107930;28;20474;-79
2023/12/31 09:10:00;;;;;;;26.25;22.55;;;;;;;26.08;20.52;95346.56;5108726;28;20106;-87
2023/12/31 09:12:26;;;;;;;26.88;23.73;;;;;;;26.31;20.29;95341.41;5089841;28;20564;-80
2023/12/31 09:14:51;;;;;;;27.20;22.95;;;;;;;26.59;20.13;95348.78;5108657;28;20542;-84
2023/12/31 09:17:16;;;;;;;27.45;24.33;;;;;;;26.75;19.74;95347.78;5109280;28;20032;-80
2023/12/31 09:19:42;;;;;;;25.95;23.02;;;;;;;27.15;19.64;95342.34;5108777;28;20031;-80
2023/12/31 09:22:07;;;;;;;24.30;21.70;;;;;;;27.62;19.09;95338.97;5108275;28;20539;-80
2023/12/31 09:24:33;;;;;;;27.58;21.98;;;;;;;27.49;19.29;95325.59;5108897;28;20035;-79
2023/12/31 09:26:58;;;;;;;26.85;21.40;;;;;;;27.97;18.64;95332.94;5108637;28;20068;-80
2023/12/31 09:29:24;;;;;;;24.42;21.88;;;;;;;28.25;18.33;95329.53;5108567;28;20036;-80
2023/12/31 09:31:49;;;;;;;26.52;21.63;;;;;;;28.34;18.25;95321.97;5108503;28;20425;-79
2023/12/31 09:34:15;;;;;;;23.25;20.75;;;;;;;28.67;17.70;95329.69;5108049;28;20486;-81
2023/12/31 09:36:40;;;;;;;23.80;21.27;;;;;;;28.95;17.71;95317.78;5109003;28;20028;-82
2023/12/31 09:39:05;;;;;;;25.75;22.50;;;;;;;28.86;17.85;95323.13;5107887;28;20099;-83
2023/12/31 09:41:31;;;;;;;26.58;23.73;;;;;;;29.19;17.49;95316.69;5109023;28;20023;-75
2023/12/31 09:43:57;;;;;;;28.85;25.65;;;;;;;29.41;17.29;95312.53;5106912;28;20122;-84
2023/12/31 09:46:22;;;;;;;32.90;26.95;;;;;;;29.63;17.03;95311.22;5108714;28;20102;-82
2023/12/31 09:48:49;;;;;;;27.67;24.25;;;;;;;29.89;16.98;95311.03;5108200;28;20040;-81
2023/12/31 09:51:17;;;;;;;28.27;25.27;;;;;;;30.04;16.82;95301.84;5107932;27;20024;-78
2023/12/31 09:53:42;;;;;;;28.70;25.70;;;;;;;30.41;16.58;95296.97;5106907;28;20443;-80
2023/12/31 09:56:08;;;;;;;28.90;25.80;;;;;;;30.13;16.45;95295.69;5106254;28;20020;-81
2023/12/31 09:58:35;;;;;;;28.73;25.55;;;;;;;30.61;16.17;95296.06;5108358;28;20036;-82
2023/12/31 10:01:01;;;;;;;30.60;27.50;;;;;;;30.93;15.90;95283.53;5106333;28;20795;-84
2023/12/31 10:03:26;;;;;;;31.13;27.45;;;;;;;30.96;15.90;95285.22;5106572;28;20151;-81
2023/12/31 10:05:52;;;;;;;30.92;27.63;;;;;;;31.24;15.39;95275.78;5107719;28;20027;-83
2023/12/31 10:08:18;;;;;;;30.90;27.58;;;;;;;31.47;15.47;95270.13;5106421;28;20032;-80
2023/12/31 10:10:44;;;;;;;30.13;26.92;;;;;;;31.47;15.57;95275.81;5108032;28;20019;-80
2023/12/31 10:13:14;;;;;;;33.88;28.10;;;;;;;31.51;15.51;95266.91;5107227;28;20031;-79
2023/12/31 10:15:39;;;;;;;32.53;29.02;;;;;;;31.46;15.47;95266.53;5106021;28;20532;-81
2023/12/31 10:18:08;;;;;;;31.45;28.33;;;;;;;31.43;15.53;95259.16;5107972;28;20096;-79
2023/12/31 10:20:36;;;;;;;33.53;29.90;;;;;;;31.65;15.00;95262.53;5108037;28;20027;-79
2023/12/31 10:23:02;;;;;;;33.83;29.98;;;;;;;31.30;15.44;95247.97;5105810;28;20020;-78
2023/12/31 10:25:28;;;;;;;32.63;29.23;;;;;;;31.36;15.43;95251.38;5106699;28;20092;-78
2023/12/31 10:27:54;;;;;;;33.55;29.98;;;;;;;31.16;15.72;95255.16;5107149;28;20023;-76
2023/12/31 10:30:21;;;;;;;35.63;31.90;;;;;;;30.96;15.68;95248.31;5106649;28;20035;-80
2023/12/31 10:32:47;;;;;;;31.65;28.20;;;;;;;31.00;15.60;95236.59;5106216;28;20103;-80
2023/12/31 10:35:13;;;;;;;34.47;30.50;;;;;;;30.96;15.95;95239.03;5106388;28;20103;-78
2023/12/31 10:37:39;;;;;;;34.33;30.70;;;;;;;30.71;15.72;95239.59;5106628;28;20478;-77
2023/12/31 10:40:18;;;;;;;33.85;29.98;;;;;;;30.75;16.05;95239.22;5088551;28;20374;-79
2023/12/31 10:42:55;;;;;;;34.60;30.65;;;;;;;30.81;15.90;95236.97;5107255;28;20112;-78
2023/12/31 10:45:22;;;;;;;35.53;31.73;;;;;;;31.15;15.73;95225.25;5105364;28;20437;-86
2023/12/31 10:48:01;;;;;;;35.83;31.92;;;;;;;31.19;15.33;95222.78;5105114;28;20020;-80
2023/12/31 10:50:27;;;;;;;41.60;33.75;;;;;;;31.13;15.66;95222.97;5105577;28;20074;-81
2023/12/31 10:52:55;;;;;;;35.38;31.15;;;;;;;30.90;15.83;95220.13;5105982;28;20051;-81
2023/12/31 10:55:21;;;;;;;33.97;29.40;;;;;;;30.97;15.53;95218.63;5105527;28;20038;-81
2023/12/31 10:57:46;;;;;;;31.90;27.90;;;;;;;31.26;15.38;95205.03;5106527;28;20016;-82
2023/12/31 11:00:15;;;;;;;33.13;28.70;;;;;;;31.96;15.24;95206.41;5106468;28;20110;-82
2023/12/31 11:02:43;;;;;;;31.70;28.33;;;;;;;32.61;14.62;95200.81;5105494;28;20394;-82
2023/12/31 11:05:09;;;;;;;28.10;25.30;;;;;;;33.37;13.87;95195.88;5106047;28;20034;-80
2023/12/31 11:07:35;;;;;;;29.23;25.88;;;;;;;34.10;13.21;95189.84;5106665;28;20023;-78
2023/12/31 11:10:01;;;;;;;26.95;23.90;;;;;;;34.34;13.03;95183.25;5104962;28;20070;-80
2023/12/31 11:12:26;;;;;;;25.83;23.05;;;;;;;34.98;12.61;95181.22;5105235;28;20023;-78
2023/12/31 11:14:58;;;;;;;22.90;20.48;;;;;;;35.20;12.31;95182.19;5104769;28;20075;-77